sensor_id;sensor_type;location;lat;lon;timestamp;P1;durP1;ratioP1;P2;durP2;ratioP2
25199;SDS011;33094;48.782;9.162;2022-12-05T10:50:32;23.27;;;11.50;;
25199;SDS011;33094;48.782;9.162;2022-12-05T11:20:46;10.82;;;6.25;;
25199;SDS011;33094;48.782;9.162;2022-12-05T11:23:32;19.20;;;9.25;;
25199;SDS011;33094;48.782;9.162;2022-12-05T11:25:57;24.60;;;11.52;;
25199;SDS011;33094;48.782;9.162;2022-12-05T11:28:28;19.33;;;10.50;;
25199;SDS011;33094;48.782;9.162;2022-12-05T11:31:03;19.67;;;8.55;;
25199;SDS011;33094;48.782;9.162;2022-12-05T11:33:38;13.02;;;8.07;;
25199;SDS011;33094;48.782;9.162;2022-12-05T11:36:10;11.63;;;6.25;;
25199;SDS011;33094;48.782;9.162;2022-12-05T11:38:53;9.60;;;5.13;;
25199;SDS011;33094;48.782;9.162;2022-12-05T12:44:41;26.80;;;12.93;;
25199;SDS011;33094;48.782;9.162;2022-12-05T12:47:36;24.25;;;12.23;;
25199;SDS011;33094;48.782;9.162;2022-12-05T12:50:31;20.17;;;11.48;;
25199;SDS011;33094;48.782;9.162;2022-12-05T12:55:47;27.35;;;13.30;;
25199;SDS011;33094;48.782;9.162;2022-12-05T12:58:49;26.45;;;11.90;;
25199;SDS011;33094;48.782;9.162;2022-12-05T13:04:05;24.08;;;13.55;;
25199;SDS011;33094;48.782;9.162;2022-12-05T13:06:40;21.58;;;12.68;;
25199;SDS011;33094;48.782;9.162;2022-12-05T13:12:20;24.45;;;13.90;;
25199;SDS011;33094;48.782;9.162;2022-12-05T13:14:59;22.95;;;12.27;;
25199;SDS011;33094;48.782;9.162;2022-12-05T13:17:30;25.33;;;14.20;;
25199;SDS011;33094;48.782;9.162;2022-12-05T13:19:57;24.08;;;13.30;;
25199;SDS011;33094;48.782;9.162;2022-12-05T13:22:24;29.50;;;14.30;;
25199;SDS011;33094;48.782;9.162;2022-12-05T13:24:58;27.13;;;13.23;;
25199;SDS011;33094;48.782;9.162;2022-12-05T13:27:27;25.17;;;13.25;;
25199;SDS011;33094;48.782;9.162;2022-12-05T13:30:03;27.95;;;13.40;;
25199;SDS011;33094;48.782;9.162;2022-12-05T13:32:33;25.52;;;12.73;;
25199;SDS011;33094;48.782;9.162;2022-12-05T13:37:47;22.23;;;12.55;;
25199;SDS011;33094;48.782;9.162;2022-12-05T13:40:36;24.33;;;12.90;;
25199;SDS011;33094;48.782;9.162;2022-12-05T13:43:32;26.27;;;13.35;;
25199;SDS011;33094;48.782;9.162;2022-12-05T13:46:10;25.80;;;12.77;;
25199;SDS011;33094;48.782;9.162;2022-12-05T13:48:43;28.13;;;14.18;;
25199;SDS011;33094;48.782;9.162;2022-12-05T13:53:47;31.15;;;15.02;;
25199;SDS011;33094;48.782;9.162;2022-12-05T13:56:23;27.50;;;14.23;;
25199;SDS011;33094;48.782;9.162;2022-12-05T13:59:10;23.30;;;13.57;;
25199;SDS011;33094;48.782;9.162;2022-12-05T14:01:43;23.08;;;14.70;;
25199;SDS011;33094;48.782;9.162;2022-12-05T14:07:35;28.80;;;14.00;;
25199;SDS011;33094;48.782;9.162;2022-12-05T14:10:01;25.88;;;13.48;;
25199;SDS011;33094;48.782;9.162;2022-12-05T14:12:28;23.92;;;14.20;;
25199;SDS011;33094;48.782;9.162;2022-12-05T14:17:25;27.00;;;14.68;;
25199;SDS011;33094;48.782;9.162;2022-12-05T14:20:10;31.52;;;14.95;;
25199;SDS011;33094;48.782;9.162;2022-12-05T14:25:48;32.25;;;14.10;;
25199;SDS011;33094;48.782;9.162;2022-12-05T14:34:08;28.17;;;15.00;;
25199;SDS011;33094;48.782;9.162;2022-12-05T14:39:30;28.15;;;14.38;;
25199;SDS011;33094;48.782;9.162;2022-12-05T14:42:28;27.42;;;15.32;;
25199;SDS011;33094;48.782;9.162;2022-12-05T14:44:57;27.08;;;14.57;;
25199;SDS011;33094;48.782;9.162;2022-12-05T14:47:26;28.02;;;14.98;;
25199;SDS011;33094;48.782;9.162;2022-12-05T14:50:22;30.38;;;16.25;;
25199;SDS011;33094;48.782;9.162;2022-12-05T14:55:42;28.58;;;15.25;;
25199;SDS011;33094;48.782;9.162;2022-12-05T14:58:17;33.97;;;15.65;;
25199;SDS011;33094;48.782;9.162;2022-12-05T15:00:56;27.27;;;13.93;;
25199;SDS011;33094;48.782;9.162;2022-12-05T15:03:37;22.92;;;13.95;;
25199;SDS011;33094;48.782;9.162;2022-12-05T15:06:05;24.30;;;13.70;;
25199;SDS011;33094;48.782;9.162;2022-12-05T15:08:44;25.98;;;13.98;;
25199;SDS011;33094;48.782;9.162;2022-12-05T15:11:14;26.25;;;14.07;;
25199;SDS011;33094;48.782;9.162;2022-12-05T15:13:52;27.52;;;14.48;;
25199;SDS011;33094;48.782;9.162;2022-12-05T15:16:24;26.48;;;14.13;;
25199;SDS011;33094;48.782;9.162;2022-12-05T15:18:55;27.05;;;13.82;;
25199;SDS011;33094;48.782;9.162;2022-12-05T15:21:47;25.35;;;14.65;;
25199;SDS011;33094;48.782;9.162;2022-12-05T15:24:18;27.83;;;14.75;;
25199;SDS011;33094;48.782;9.162;2022-12-05T15:26:50;27.30;;;15.18;;
25199;SDS011;33094;48.782;9.162;2022-12-05T15:35:01;29.35;;;15.68;;
25199;SDS011;33094;48.782;9.162;2022-12-05T15:40:44;35.03;;;16.13;;
25199;SDS011;33094;48.782;9.162;2022-12-05T15:43:24;31.23;;;16.83;;
25199;SDS011;33094;48.782;9.162;2022-12-05T15:48:51;41.47;;;21.50;;
25199;SDS011;33094;48.782;9.162;2022-12-05T15:53:49;31.92;;;17.70;;
25199;SDS011;33094;48.782;9.162;2022-12-05T16:01:24;41.45;;;17.65;;
25199;SDS011;33094;48.782;9.162;2022-12-05T16:06:39;29.95;;;16.20;;
25199;SDS011;33094;48.782;9.162;2022-12-05T16:09:12;30.88;;;17.23;;
25199;SDS011;33094;48.782;9.162;2022-12-05T16:11:54;30.42;;;15.45;;
25199;SDS011;33094;48.782;9.162;2022-12-05T16:14:23;34.45;;;16.85;;
25199;SDS011;33094;48.782;9.162;2022-12-05T16:16:54;33.90;;;18.10;;
25199;SDS011;33094;48.782;9.162;2022-12-05T16:19:25;47.55;;;24.48;;
25199;SDS011;33094;48.782;9.162;2022-12-05T16:21:59;52.15;;;28.88;;
25199;SDS011;33094;48.782;9.162;2022-12-05T16:27:15;31.77;;;18.05;;
25199;SDS011;33094;48.782;9.162;2022-12-05T16:30:04;32.65;;;16.77;;
25199;SDS011;33094;48.782;9.162;2022-12-05T16:32:37;31.33;;;15.73;;
25199;SDS011;33094;48.782;9.162;2022-12-05T16:38:09;32.58;;;17.08;;
25199;SDS011;33094;48.782;9.162;2022-12-05T16:43:18;31.67;;;17.13;;
25199;SDS011;33094;48.782;9.162;2022-12-05T16:45:48;30.75;;;15.48;;
25199;SDS011;33094;48.782;9.162;2022-12-05T16:50:52;33.60;;;17.55;;
25199;SDS011;33094;48.782;9.162;2022-12-05T16:53:37;27.77;;;16.50;;
25199;SDS011;33094;48.782;9.162;2022-12-05T16:56:04;35.33;;;18.85;;
25199;SDS011;33094;48.782;9.162;2022-12-05T16:58:34;30.67;;;16.85;;
25199;SDS011;33094;48.782;9.162;2022-12-05T17:01:01;31.30;;;16.27;;
25199;SDS011;33094;48.782;9.162;2022-12-05T17:03:28;32.40;;;17.67;;
25199;SDS011;33094;48.782;9.162;2022-12-05T17:05:55;30.95;;;16.55;;
25199;SDS011;33094;48.782;9.162;2022-12-05T17:08:21;34.03;;;16.90;;
25199;SDS011;33094;48.782;9.162;2022-12-05T17:10:48;31.50;;;16.67;;
25199;SDS011;33094;48.782;9.162;2022-12-05T17:13:14;32.42;;;17.02;;
25199;SDS011;33094;48.782;9.162;2022-12-05T17:18:13;33.93;;;16.10;;
25199;SDS011;33094;48.782;9.162;2022-12-05T17:20:46;28.50;;;15.57;;
25199;SDS011;33094;48.782;9.162;2022-12-05T17:23:15;31.15;;;15.45;;
25199;SDS011;33094;48.782;9.162;2022-12-05T17:25:53;33.95;;;17.33;;
25199;SDS011;33094;48.782;9.162;2022-12-05T17:29:01;32.53;;;16.73;;
25199;SDS011;33094;48.782;9.162;2022-12-05T17:31:42;36.97;;;17.55;;
25199;SDS011;33094;48.782;9.162;2022-12-05T17:34:34;35.88;;;18.33;;
25199;SDS011;33094;48.782;9.162;2022-12-05T17:37:19;30.48;;;15.98;;
25199;SDS011;33094;48.782;9.162;2022-12-05T17:40:03;35.97;;;17.67;;
25199;SDS011;33094;48.782;9.162;2022-12-05T17:42:44;29.40;;;18.13;;
25199;SDS011;33094;48.782;9.162;2022-12-05T17:45:39;33.03;;;17.30;;
25199;SDS011;33094;48.782;9.162;2022-12-05T17:48:08;35.13;;;17.23;;
25199;SDS011;33094;48.782;9.162;2022-12-05T17:50:38;32.47;;;18.25;;
25199;SDS011;33094;48.782;9.162;2022-12-05T17:53:07;33.05;;;18.85;;
25199;SDS011;33094;48.782;9.162;2022-12-05T17:55:37;32.38;;;17.65;;
25199;SDS011;33094;48.782;9.162;2022-12-05T17:58:04;38.22;;;20.95;;
25199;SDS011;33094;48.782;9.162;2022-12-05T18:00:29;39.13;;;19.42;;
25199;SDS011;33094;48.782;9.162;2022-12-05T18:02:55;44.13;;;18.20;;
25199;SDS011;33094;48.782;9.162;2022-12-05T18:05:23;33.95;;;17.83;;
25199;SDS011;33094;48.782;9.162;2022-12-05T18:07:52;33.65;;;17.05;;
25199;SDS011;33094;48.782;9.162;2022-12-05T18:10:19;33.25;;;16.95;;
25199;SDS011;33094;48.782;9.162;2022-12-05T18:12:47;32.40;;;16.50;;
25199;SDS011;33094;48.782;9.162;2022-12-05T18:15:13;30.02;;;16.70;;
25199;SDS011;33094;48.782;9.162;2022-12-05T18:17:40;41.10;;;17.40;;
25199;SDS011;33094;48.782;9.162;2022-12-05T18:20:07;21.08;;;12.48;;
25199;SDS011;33094;48.782;9.162;2022-12-05T18:22:34;31.25;;;16.38;;
25199;SDS011;33094;48.782;9.162;2022-12-05T18:25:00;30.00;;;17.02;;
25199;SDS011;33094;48.782;9.162;2022-12-05T18:27:27;39.83;;;18.20;;
25199;SDS011;33094;48.782;9.162;2022-12-05T18:29:54;33.70;;;17.80;;
25199;SDS011;33094;48.782;9.162;2022-12-05T18:32:20;35.85;;;19.13;;
25199;SDS011;33094;48.782;9.162;2022-12-05T18:34:45;36.03;;;19.02;;
25199;SDS011;33094;48.782;9.162;2022-12-05T18:37:11;39.05;;;21.45;;
25199;SDS011;33094;48.782;9.162;2022-12-05T18:40:18;32.33;;;18.88;;
25199;SDS011;33094;48.782;9.162;2022-12-05T18:42:57;37.10;;;18.70;;
25199;SDS011;33094;48.782;9.162;2022-12-05T18:45:26;39.20;;;19.15;;
25199;SDS011;33094;48.782;9.162;2022-12-05T18:47:54;37.03;;;18.35;;
25199;SDS011;33094;48.782;9.162;2022-12-05T18:50:20;36.30;;;18.98;;
25199;SDS011;33094;48.782;9.162;2022-12-05T18:52:50;41.70;;;18.67;;
25199;SDS011;33094;48.782;9.162;2022-12-05T18:55:19;39.08;;;20.17;;
25199;SDS011;33094;48.782;9.162;2022-12-05T18:57:44;40.45;;;20.30;;
25199;SDS011;33094;48.782;9.162;2022-12-05T19:00:10;37.60;;;20.45;;
25199;SDS011;33094;48.782;9.162;2022-12-05T19:02:39;37.67;;;18.48;;
25199;SDS011;33094;48.782;9.162;2022-12-05T19:05:05;37.83;;;19.35;;
25199;SDS011;33094;48.782;9.162;2022-12-05T19:07:30;39.83;;;21.08;;
25199;SDS011;33094;48.782;9.162;2022-12-05T19:09:56;39.25;;;19.08;;
25199;SDS011;33094;48.782;9.162;2022-12-05T19:12:22;37.72;;;20.35;;
25199;SDS011;33094;48.782;9.162;2022-12-05T19:14:52;35.90;;;19.40;;
25199;SDS011;33094;48.782;9.162;2022-12-05T19:17:18;35.38;;;17.80;;
25199;SDS011;33094;48.782;9.162;2022-12-05T19:19:43;42.95;;;20.75;;
25199;SDS011;33094;48.782;9.162;2022-12-05T19:22:09;42.30;;;20.63;;
25199;SDS011;33094;48.782;9.162;2022-12-05T19:24:35;35.60;;;19.52;;
25199;SDS011;33094;48.782;9.162;2022-12-05T19:27:01;39.33;;;21.80;;
25199;SDS011;33094;48.782;9.162;2022-12-05T19:29:26;46.42;;;21.65;;
25199;SDS011;33094;48.782;9.162;2022-12-05T19:31:52;38.80;;;22.05;;
25199;SDS011;33094;48.782;9.162;2022-12-05T19:34:17;41.17;;;22.25;;
25199;SDS011;33094;48.782;9.162;2022-12-05T19:36:44;38.05;;;20.83;;
25199;SDS011;33094;48.782;9.162;2022-12-05T19:41:40;37.47;;;21.70;;
25199;SDS011;33094;48.782;9.162;2022-12-05T19:44:06;44.00;;;21.05;;
25199;SDS011;33094;48.782;9.162;2022-12-05T19:46:32;40.80;;;21.85;;
25199;SDS011;33094;48.782;9.162;2022-12-05T19:48:59;44.25;;;22.35;;
25199;SDS011;33094;48.782;9.162;2022-12-05T19:51:27;43.75;;;22.85;;
25199;SDS011;33094;48.782;9.162;2022-12-05T19:53:53;43.55;;;21.92;;
25199;SDS011;33094;48.782;9.162;2022-12-05T19:56:20;39.90;;;20.83;;
25199;SDS011;33094;48.782;9.162;2022-12-05T19:58:48;38.95;;;21.38;;
25199;SDS011;33094;48.782;9.162;2022-12-05T20:01:16;37.53;;;20.73;;
25199;SDS011;33094;48.782;9.162;2022-12-05T20:03:51;38.45;;;20.33;;
25199;SDS011;33094;48.782;9.162;2022-12-05T20:06:19;43.22;;;22.35;;
25199;SDS011;33094;48.782;9.162;2022-12-05T20:08:46;40.92;;;20.70;;
25199;SDS011;33094;48.782;9.162;2022-12-05T20:11:24;45.42;;;20.95;;
25199;SDS011;33094;48.782;9.162;2022-12-05T20:13:51;38.50;;;19.88;;
25199;SDS011;33094;48.782;9.162;2022-12-05T20:16:19;39.50;;;19.67;;
25199;SDS011;33094;48.782;9.162;2022-12-05T20:21:12;39.50;;;20.53;;
25199;SDS011;33094;48.782;9.162;2022-12-05T20:23:41;38.92;;;21.13;;
25199;SDS011;33094;48.782;9.162;2022-12-05T20:26:15;47.42;;;22.45;;
25199;SDS011;33094;48.782;9.162;2022-12-05T20:28:43;43.90;;;22.55;;
25199;SDS011;33094;48.782;9.162;2022-12-05T20:31:10;40.97;;;21.53;;
25199;SDS011;33094;48.782;9.162;2022-12-05T20:33:41;39.53;;;22.00;;
25199;SDS011;33094;48.782;9.162;2022-12-05T20:36:11;49.00;;;22.83;;
25199;SDS011;33094;48.782;9.162;2022-12-05T20:38:42;38.70;;;20.08;;
25199;SDS011;33094;48.782;9.162;2022-12-05T20:41:12;43.17;;;21.98;;
25199;SDS011;33094;48.782;9.162;2022-12-05T20:43:40;39.75;;;21.65;;
25199;SDS011;33094;48.782;9.162;2022-12-05T20:46:11;41.75;;;21.08;;
25199;SDS011;33094;48.782;9.162;2022-12-05T20:48:41;40.65;;;22.35;;
25199;SDS011;33094;48.782;9.162;2022-12-05T20:51:09;41.05;;;23.25;;
25199;SDS011;33094;48.782;9.162;2022-12-05T20:53:36;45.22;;;21.48;;
